createdAt,value
2022-07-25T00:01:20.650Z,27.77
2022-07-25T00:03:45.374Z,27.77
2022-07-25T00:06:13.545Z,27.75
2022-07-25T00:08:38.170Z,27.75
2022-07-25T00:11:04.535Z,27.75
2022-07-25T00:13:30.961Z,27.74
2022-07-25T00:15:57.435Z,27.73
2022-07-25T00:18:23.792Z,27.72
2022-07-25T00:20:50.177Z,27.70
2022-07-25T00:23:16.601Z,27.68
2022-07-25T00:25:42.982Z,27.66
2022-07-25T00:28:09.366Z,27.65
2022-07-25T00:30:35.783Z,27.64
2022-07-25T00:33:02.226Z,27.60
2022-07-25T00:35:28.580Z,27.59
2022-07-25T00:37:54.994Z,27.56
2022-07-25T00:40:21.367Z,27.56
2022-07-25T00:42:47.861Z,27.57
2022-07-25T00:45:14.226Z,27.58
2022-07-25T00:47:40.622Z,27.60
2022-07-25T00:50:07.023Z,27.61
2022-07-25T00:52:33.480Z,27.63
2022-07-25T00:54:59.846Z,27.61
2022-07-25T00:57:26.265Z,27.60
2022-07-25T00:59:52.615Z,27.60
2022-07-25T01:02:19.022Z,27.61
2022-07-25T01:04:45.358Z,27.61
2022-07-25T01:07:11.722Z,27.63
2022-07-25T01:09:38.122Z,27.63
2022-07-25T01:12:04.492Z,27.61
2022-07-25T01:14:30.853Z,27.60
2022-07-25T01:16:57.254Z,27.58
2022-07-25T01:19:23.620Z,27.53
2022-07-25T01:21:50.070Z,27.53
2022-07-25T01:24:16.487Z,27.53
2022-07-25T01:26:42.849Z,27.53
2022-07-25T01:29:09.216Z,27.52
2022-07-25T01:31:35.653Z,27.49
2022-07-25T01:34:02.144Z,27.48
2022-07-25T01:36:28.424Z,27.50
2022-07-25T01:38:54.813Z,27.49
2022-07-25T01:41:22.295Z,27.51
2022-07-25T01:43:47.660Z,27.52
2022-07-25T01:46:14.071Z,27.55
2022-07-25T01:48:40.493Z,27.54
2022-07-25T01:51:06.825Z,27.54
2022-07-25T01:53:33.196Z,27.55
2022-07-25T01:55:59.566Z,27.55
2022-07-25T01:58:26.054Z,27.50
2022-07-25T02:00:52.483Z,27.47
2022-07-25T02:03:18.919Z,27.47
2022-07-25T02:05:45.354Z,27.44
2022-07-25T02:08:11.713Z,27.41
2022-07-25T02:10:38.098Z,27.40
2022-07-25T02:13:04.459Z,27.37
2022-07-25T02:15:30.844Z,27.33
2022-07-25T02:17:57.242Z,27.32
2022-07-25T02:20:23.598Z,27.29
2022-07-25T02:22:49.983Z,27.25
2022-07-25T02:25:16.349Z,27.19
2022-07-25T02:27:42.715Z,27.15
2022-07-25T02:30:09.167Z,27.10
2022-07-25T02:32:35.601Z,27.06
2022-07-25T02:35:02.036Z,27.02
2022-07-25T02:37:28.469Z,26.97
2022-07-25T02:39:54.852Z,26.92
2022-07-25T02:42:21.215Z,26.89
2022-07-25T02:44:47.677Z,26.87
2022-07-25T02:47:14.067Z,26.87
2022-07-25T02:49:40.456Z,26.88
2022-07-25T02:52:06.816Z,26.85
2022-07-25T02:54:33.295Z,26.84
2022-07-25T02:56:59.675Z,26.81
2022-07-25T02:59:26.063Z,26.82
2022-07-25T03:01:52.497Z,26.87
2022-07-25T03:04:18.836Z,26.98
2022-07-25T03:06:45.177Z,27.08
2022-07-25T03:09:11.547Z,27.10
2022-07-25T03:11:37.912Z,27.16
2022-07-25T03:14:04.736Z,27.27
2022-07-25T03:16:30.660Z,27.24
2022-07-25T03:18:57.018Z,27.35
2022-07-25T03:21:23.446Z,27.39
2022-07-25T03:24:03.958Z,27.42
2022-07-25T03:26:16.236Z,27.41
2022-07-25T03:28:42.625Z,27.44
2022-07-25T03:31:08.984Z,27.44
2022-07-25T03:33:35.402Z,27.45
2022-07-25T03:36:01.782Z,27.47
2022-07-25T03:38:28.166Z,27.49
2022-07-25T03:40:54.602Z,27.42
2022-07-25T03:43:21.034Z,27.36
2022-07-25T03:45:47.518Z,27.41
2022-07-25T03:48:13.830Z,27.38
2022-07-25T03:50:40.340Z,27.38
2022-07-25T03:53:06.770Z,27.36
2022-07-25T03:55:33.124Z,27.34
2022-07-25T03:57:59.520Z,27.29
2022-07-25T04:00:25.899Z,27.26
2022-07-25T04:02:52.304Z,27.15
2022-07-25T04:05:18.669Z,27.15
2022-07-25T04:07:45.031Z,27.18
2022-07-25T04:10:11.398Z,27.32
2022-07-25T04:12:37.823Z,27.39
2022-07-25T04:15:04.198Z,27.51
2022-07-25T04:17:30.563Z,27.49
2022-07-25T04:19:56.947Z,27.52
2022-07-25T04:22:23.346Z,27.51
2022-07-25T04:24:49.727Z,27.57
2022-07-25T04:27:16.213Z,27.54
2022-07-25T04:29:42.569Z,27.59
2022-07-25T04:32:08.987Z,27.56
2022-07-25T04:34:35.322Z,27.56
2022-07-25T04:37:01.745Z,27.59
2022-07-25T04:39:28.178Z,27.66
2022-07-25T04:41:54.611Z,27.66
2022-07-25T04:44:21.000Z,27.62
2022-07-25T04:46:47.347Z,27.60
2022-07-25T04:49:13.752Z,27.58
2022-07-25T04:51:40.135Z,27.55
2022-07-25T04:54:06.835Z,27.48
2022-07-25T04:56:33.005Z,27.46
2022-07-25T04:59:04.691Z,27.52
2022-07-25T05:01:25.798Z,27.52
2022-07-25T05:03:52.200Z,27.54
2022-07-25T05:06:18.559Z,27.53
2022-07-25T05:08:44.923Z,27.55
2022-07-25T05:11:11.400Z,27.65
2022-07-25T05:13:37.756Z,27.72
2022-07-25T05:16:04.299Z,27.84
2022-07-25T05:18:30.621Z,27.92
2022-07-25T05:20:56.986Z,27.91
2022-07-25T05:23:23.459Z,27.88
2022-07-25T05:25:49.855Z,27.82
2022-07-25T05:28:16.217Z,27.81
2022-07-25T05:30:42.603Z,27.87
2022-07-25T05:33:08.981Z,28.15
2022-07-25T05:35:35.418Z,28.40
2022-07-25T05:38:01.781Z,28.51
2022-07-25T05:40:28.156Z,28.65
2022-07-25T05:42:57.156Z,28.84
2022-07-25T05:45:20.916Z,28.90
2022-07-25T05:47:47.279Z,29.03
2022-07-25T05:50:13.708Z,29.21
2022-07-25T05:52:40.140Z,29.33
2022-07-25T05:55:06.508Z,29.41
2022-07-25T05:57:32.871Z,29.51
2022-07-25T05:59:59.243Z,29.64
2022-07-25T06:02:25.785Z,29.74
2022-07-25T06:04:52.102Z,29.86
2022-07-25T06:07:18.494Z,29.94
2022-07-25T06:09:44.871Z,29.99
2022-07-25T06:12:11.298Z,30.07
2022-07-25T06:14:37.660Z,30.25
2022-07-25T06:17:04.039Z,30.39
2022-07-25T06:19:30.514Z,30.47
2022-07-25T06:21:56.899Z,30.61
2022-07-25T06:24:23.359Z,30.73
2022-07-25T06:26:49.720Z,30.83
2022-07-25T06:29:16.250Z,30.90
2022-07-25T06:31:42.693Z,31.01
2022-07-25T06:34:09.392Z,31.06
2022-07-25T06:36:35.398Z,31.04
2022-07-25T06:39:01.772Z,31.17
2022-07-25T06:41:28.249Z,31.24
2022-07-25T06:43:54.620Z,31.39
2022-07-25T06:46:21.085Z,31.46
2022-07-25T06:48:47.452Z,31.55
2022-07-25T06:51:13.817Z,31.78
2022-07-25T06:53:40.240Z,31.99
2022-07-25T06:56:06.682Z,32.04
2022-07-25T06:58:33.060Z,32.17
2022-07-25T07:00:59.514Z,32.25
2022-07-25T07:03:26.055Z,32.27
2022-07-25T07:05:52.379Z,32.32
2022-07-25T07:08:18.769Z,32.31
2022-07-25T07:10:45.131Z,32.47
2022-07-25T07:13:11.525Z,32.66
2022-07-25T07:15:37.918Z,32.86
2022-07-25T07:18:04.253Z,32.87
2022-07-25T07:20:30.730Z,32.91
2022-07-25T07:22:57.145Z,32.93
2022-07-25T07:25:23.525Z,33.11
2022-07-25T07:27:49.933Z,33.30
2022-07-25T07:30:22.156Z,33.51
2022-07-25T07:32:42.719Z,33.64
2022-07-25T07:35:09.100Z,33.66
2022-07-25T07:37:40.009Z,33.71
2022-07-25T07:40:01.893Z,33.75
2022-07-25T07:42:28.382Z,33.69
2022-07-25T07:44:54.971Z,33.83
2022-07-25T07:47:21.366Z,33.93
2022-07-25T07:49:50.366Z,34.04
2022-07-25T07:52:14.234Z,34.17
2022-07-25T07:54:40.904Z,34.28
2022-07-25T07:57:07.285Z,34.23
2022-07-25T07:59:33.667Z,34.31
2022-07-25T08:02:00.168Z,34.36
2022-07-25T08:04:26.437Z,34.44
2022-07-25T08:06:52.826Z,34.47
2022-07-25T08:09:19.265Z,34.55
2022-07-25T08:11:45.699Z,34.72
2022-07-25T08:14:12.094Z,34.80
2022-07-25T08:16:38.551Z,34.93
2022-07-25T08:19:04.843Z,35.02
2022-07-25T08:21:31.330Z,35.05
2022-07-25T08:23:57.760Z,34.92
2022-07-25T08:26:24.195Z,34.80
2022-07-25T08:29:04.900Z,34.69
2022-07-25T08:31:16.966Z,34.65
2022-07-25T08:33:43.307Z,34.81
2022-07-25T08:36:09.677Z,34.82
2022-07-25T08:38:36.079Z,34.97
2022-07-25T08:41:02.442Z,35.02
2022-07-25T08:43:28.803Z,35.13
2022-07-25T08:45:55.288Z,35.14
2022-07-25T08:48:21.577Z,35.13
2022-07-25T08:50:47.964Z,35.15
2022-07-25T08:53:32.735Z,35.34
2022-07-25T08:55:40.698Z,35.55
2022-07-25T08:58:07.103Z,35.70
2022-07-25T09:00:33.561Z,35.80
2022-07-25T09:02:59.955Z,35.65
2022-07-25T09:05:26.290Z,35.46
2022-07-25T09:07:52.659Z,35.44
2022-07-25T09:10:19.171Z,35.49
2022-07-25T09:12:45.558Z,35.45
2022-07-25T09:15:12.004Z,35.41
2022-07-25T09:17:38.466Z,35.37
2022-07-25T09:20:04.897Z,35.69
2022-07-25T09:22:31.260Z,35.74
2022-07-25T09:24:57.666Z,35.90
2022-07-25T09:27:24.028Z,35.80
2022-07-25T09:29:50.435Z,35.66
2022-07-25T09:32:16.825Z,35.18
2022-07-25T09:34:43.287Z,34.57
2022-07-25T09:37:09.727Z,34.04
2022-07-25T09:39:36.085Z,33.95
2022-07-25T09:42:02.491Z,34.14
2022-07-25T09:44:28.925Z,34.07
2022-07-25T09:46:55.318Z,33.96
2022-07-25T09:49:21.689Z,34.02
2022-07-25T09:51:48.063Z,34.09
2022-07-25T09:54:14.431Z,34.34
2022-07-25T09:56:40.811Z,34.54
2022-07-25T09:59:07.227Z,34.70
2022-07-25T10:01:33.634Z,35.16
2022-07-25T10:03:59.980Z,35.28
2022-07-25T10:06:26.359Z,35.06
2022-07-25T10:08:52.717Z,35.22
2022-07-25T10:11:19.179Z,35.43
2022-07-25T10:13:45.563Z,35.60
2022-07-25T10:16:11.944Z,35.58
2022-07-25T10:18:38.314Z,35.26
2022-07-25T10:21:22.958Z,34.96
2022-07-25T10:23:31.036Z,34.95
2022-07-25T10:25:57.426Z,35.34
2022-07-25T10:28:23.783Z,35.37
2022-07-25T10:30:50.356Z,35.50
2022-07-25T10:33:16.691Z,35.54
2022-07-25T10:35:43.090Z,35.78
2022-07-25T10:38:09.488Z,35.64
2022-07-25T10:40:35.875Z,35.41
2022-07-25T10:43:02.254Z,35.49
2022-07-25T10:45:28.727Z,35.50
2022-07-25T10:47:55.107Z,35.43
2022-07-25T10:50:34.848Z,35.59
2022-07-25T10:52:47.985Z,35.39
2022-07-25T10:55:14.365Z,35.59
2022-07-25T10:57:54.949Z,35.63
2022-07-25T11:00:07.117Z,36.01
2022-07-25T11:02:33.562Z,36.21
2022-07-25T11:04:59.847Z,36.39
2022-07-25T11:07:26.309Z,36.44
2022-07-25T11:09:52.714Z,36.31
2022-07-25T11:12:19.181Z,36.21
2022-07-25T11:14:45.546Z,36.01
2022-07-25T11:17:11.983Z,35.73
2022-07-25T11:19:38.318Z,35.22
2022-07-25T11:22:04.702Z,35.04
2022-07-25T11:24:31.087Z,35.25
2022-07-25T11:26:57.466Z,35.38
2022-07-25T11:29:23.911Z,35.62
2022-07-25T11:31:50.327Z,35.89
2022-07-25T11:34:16.659Z,35.88
2022-07-25T11:36:43.058Z,35.69
2022-07-25T11:39:11.420Z,35.52
2022-07-25T11:41:35.971Z,35.28
2022-07-25T11:44:02.340Z,35.10
2022-07-25T11:46:28.783Z,35.14
2022-07-25T11:48:55.230Z,35.55
2022-07-25T11:51:21.523Z,35.90
2022-07-25T11:53:47.897Z,36.19
2022-07-25T11:56:39.614Z,36.41
2022-07-25T11:58:40.650Z,36.58
2022-07-25T12:01:07.017Z,36.72
2022-07-25T12:03:33.440Z,36.87
2022-07-25T12:05:59.891Z,36.94
2022-07-25T12:08:26.271Z,36.96
2022-07-25T12:10:52.636Z,37.03
2022-07-25T12:13:19.088Z,37.02
2022-07-25T12:15:45.463Z,37.03
2022-07-25T12:18:11.826Z,37.03
2022-07-25T12:20:38.251Z,37.03
2022-07-25T12:23:04.725Z,36.98
2022-07-25T12:25:31.316Z,36.98
2022-07-25T12:27:57.466Z,36.99
2022-07-25T12:30:23.870Z,37.01
2022-07-25T12:32:50.256Z,37.03
2022-07-25T12:35:16.638Z,37.15
2022-07-25T12:37:43.104Z,37.10
2022-07-25T12:40:09.504Z,36.93
2022-07-25T12:42:36.226Z,36.67
2022-07-25T12:45:02.584Z,36.45
2022-07-25T12:47:28.949Z,36.42
2022-07-25T12:49:55.376Z,36.77
2022-07-25T12:52:21.914Z,36.87
2022-07-25T12:54:48.346Z,36.89
2022-07-25T12:57:14.712Z,36.78
2022-07-25T12:59:41.100Z,36.60
2022-07-25T13:02:07.595Z,36.46
2022-07-25T13:04:33.905Z,36.34
2022-07-25T13:07:00.311Z,36.26
2022-07-25T13:09:26.731Z,36.18
2022-07-25T13:11:53.167Z,36.06
2022-07-25T13:14:19.604Z,35.97
2022-07-25T13:16:46.113Z,35.96
2022-07-25T13:19:12.410Z,35.94
2022-07-25T13:21:38.818Z,35.94
2022-07-25T13:24:05.238Z,35.86
2022-07-25T13:26:31.624Z,35.85
2022-07-25T13:28:59.927Z,35.78
2022-07-25T13:31:24.416Z,35.73
2022-07-25T13:33:50.787Z,35.70
2022-07-25T13:36:17.155Z,35.65
2022-07-25T13:38:43.627Z,35.64
2022-07-25T13:41:10.061Z,35.62
2022-07-25T13:43:36.446Z,35.60
2022-07-25T13:46:05.040Z,35.53
2022-07-25T13:48:31.588Z,35.52
2022-07-25T13:50:57.693Z,35.50
2022-07-25T13:53:29.498Z,35.52
2022-07-25T13:55:50.466Z,35.53
2022-07-25T13:58:16.939Z,35.41
2022-07-25T14:00:43.415Z,35.34
2022-07-25T14:03:09.672Z,35.27
2022-07-25T14:05:36.055Z,35.23
2022-07-25T14:08:02.464Z,35.11
2022-07-25T14:10:28.829Z,35.07
2022-07-25T14:12:55.201Z,35.03
2022-07-25T14:15:21.590Z,35.03
2022-07-25T14:17:47.995Z,34.97
2022-07-25T14:20:14.377Z,34.93
2022-07-25T14:22:40.850Z,34.89
2022-07-25T14:25:07.247Z,34.80
2022-07-25T14:27:33.626Z,34.80
2022-07-25T14:30:00.053Z,34.77
2022-07-25T14:32:26.492Z,34.71
2022-07-25T14:34:52.915Z,34.70
2022-07-25T14:37:19.283Z,34.61
2022-07-25T14:39:45.684Z,34.54
2022-07-25T14:42:12.117Z,34.40
2022-07-25T14:44:38.484Z,34.30
2022-07-25T14:47:08.964Z,34.20
2022-07-25T14:49:31.275Z,34.12
2022-07-25T14:51:57.753Z,34.11
2022-07-25T14:54:24.158Z,34.05
2022-07-25T14:56:50.519Z,34.00
2022-07-25T14:59:16.886Z,34.00
2022-07-25T15:01:43.265Z,33.95
2022-07-25T15:04:09.668Z,33.85
2022-07-25T15:06:36.033Z,33.72
2022-07-25T15:09:02.422Z,33.68
2022-07-25T15:11:28.792Z,33.64
2022-07-25T15:13:55.163Z,33.64
2022-07-25T15:16:21.587Z,33.64
2022-07-25T15:19:14.618Z,33.63
2022-07-25T15:21:14.299Z,33.58
2022-07-25T15:23:40.684Z,33.53
2022-07-25T15:26:07.047Z,33.46
2022-07-25T15:28:33.439Z,33.44
2022-07-25T15:30:59.913Z,33.42
2022-07-25T15:33:26.202Z,33.38
2022-07-25T15:35:52.567Z,33.33
2022-07-25T15:38:19.151Z,33.29
2022-07-25T15:40:45.488Z,33.23
2022-07-25T15:43:11.896Z,33.21
2022-07-25T15:45:38.388Z,33.18
2022-07-25T15:48:04.742Z,33.13
2022-07-25T15:50:31.151Z,33.08
2022-07-25T15:52:57.551Z,33.00
2022-07-25T15:55:23.922Z,33.00
2022-07-25T15:57:50.317Z,33.01
2022-07-25T16:00:16.746Z,33.01
2022-07-25T16:02:43.128Z,32.98
2022-07-25T16:05:09.535Z,32.91
2022-07-25T16:07:35.903Z,32.87
2022-07-25T16:10:02.300Z,32.83
2022-07-25T16:12:29.115Z,32.77
2022-07-25T16:14:55.498Z,32.73
2022-07-25T16:17:21.986Z,32.69
2022-07-25T16:19:48.420Z,32.65
2022-07-25T16:22:14.781Z,32.61
2022-07-25T16:24:41.176Z,32.56
2022-07-25T16:27:07.621Z,32.53
2022-07-25T16:29:33.993Z,32.50
2022-07-25T16:32:00.478Z,32.46
2022-07-25T16:34:29.210Z,32.42
2022-07-25T16:36:53.268Z,32.38
2022-07-25T16:39:19.625Z,32.33
2022-07-25T16:41:46.109Z,32.30
2022-07-25T16:44:12.541Z,32.26
2022-07-25T16:46:38.990Z,32.21
2022-07-25T16:49:05.616Z,32.18
2022-07-25T16:51:35.342Z,32.16
2022-07-25T16:53:58.119Z,32.10
2022-07-25T16:56:24.485Z,32.02
2022-07-25T16:58:50.870Z,31.95
2022-07-25T17:01:17.358Z,31.89
2022-07-25T17:03:43.755Z,31.86
2022-07-25T17:06:10.115Z,31.81
2022-07-25T17:08:36.518Z,31.77
2022-07-25T17:11:02.904Z,31.74
2022-07-25T17:13:29.269Z,31.69
2022-07-25T17:15:55.782Z,31.63
2022-07-25T17:18:22.138Z,31.58
2022-07-25T17:20:48.572Z,31.54
2022-07-25T17:23:14.922Z,31.51
2022-07-25T17:25:41.310Z,31.48
2022-07-25T17:28:07.745Z,31.44
2022-07-25T17:30:34.132Z,31.40
2022-07-25T17:33:00.496Z,31.35
2022-07-25T17:35:26.929Z,31.30
2022-07-25T17:37:53.276Z,31.26
2022-07-25T17:40:19.670Z,31.23
2022-07-25T17:42:46.121Z,31.20
2022-07-25T17:45:12.511Z,31.19
2022-07-25T17:47:38.897Z,31.19
2022-07-25T17:50:05.261Z,31.13
2022-07-25T17:52:31.681Z,31.08
2022-07-25T17:54:58.047Z,31.06
2022-07-25T17:57:24.431Z,31.04
2022-07-25T17:59:50.794Z,31.01
2022-07-25T18:02:17.158Z,30.94
2022-07-25T18:04:43.553Z,30.88
2022-07-25T18:07:09.931Z,30.83
2022-07-25T18:09:36.289Z,30.80
2022-07-25T18:12:02.690Z,30.78
2022-07-25T18:14:29.085Z,30.73
2022-07-25T18:16:55.444Z,30.69
2022-07-25T18:19:21.831Z,30.64
2022-07-25T18:21:48.211Z,30.62
2022-07-25T18:24:14.659Z,30.57
2022-07-25T18:26:41.052Z,30.51
2022-07-25T18:29:07.517Z,30.47
2022-07-25T18:31:33.983Z,30.37
2022-07-25T18:34:00.285Z,30.37
2022-07-25T18:36:26.664Z,30.33
2022-07-25T18:38:53.073Z,30.28
2022-07-25T18:41:29.363Z,30.24
2022-07-25T18:43:45.822Z,30.17
2022-07-25T18:46:12.242Z,29.91
2022-07-25T18:48:38.669Z,29.65
2022-07-25T18:51:05.124Z,29.43
2022-07-25T18:53:31.549Z,29.34
2022-07-25T18:55:57.917Z,29.58
2022-07-25T18:58:24.320Z,29.45
2022-07-25T19:00:50.684Z,29.48
2022-07-25T19:03:17.094Z,29.38
2022-07-25T19:05:43.619Z,29.50
2022-07-25T19:08:09.873Z,29.46
2022-07-25T19:10:36.236Z,29.53
2022-07-25T19:13:02.604Z,29.63
2022-07-25T19:15:29.020Z,29.68
2022-07-25T19:17:55.378Z,29.72
2022-07-25T19:20:21.761Z,29.71
2022-07-25T19:22:48.122Z,29.67
2022-07-25T19:25:14.510Z,29.62
2022-07-25T19:27:40.896Z,29.61
2022-07-25T19:30:07.257Z,29.59
2022-07-25T19:32:33.657Z,29.55
2022-07-25T19:35:00.052Z,29.52
2022-07-25T19:37:26.523Z,29.47
2022-07-25T19:39:52.899Z,29.44
2022-07-25T19:42:19.294Z,29.39
2022-07-25T19:44:45.724Z,29.32
2022-07-25T19:47:12.182Z,29.27
2022-07-25T19:49:38.479Z,29.25
2022-07-25T19:52:04.908Z,29.24
2022-07-25T19:54:31.267Z,29.23
2022-07-25T19:56:57.703Z,29.21
2022-07-25T19:59:24.206Z,29.18
2022-07-25T20:01:50.697Z,29.18
2022-07-25T20:04:17.012Z,29.18
2022-07-25T20:06:43.406Z,29.12
2022-07-25T20:09:10.200Z,29.08
2022-07-25T20:11:36.206Z,28.93
2022-07-25T20:14:02.553Z,28.94
2022-07-25T20:16:28.966Z,28.92
2022-07-25T20:18:55.294Z,28.87
2022-07-25T20:21:21.703Z,28.84
2022-07-25T20:23:48.082Z,28.64
2022-07-25T20:26:14.446Z,28.56
2022-07-25T20:28:40.866Z,28.48
2022-07-25T20:31:07.400Z,28.54
2022-07-25T20:33:33.716Z,28.49
2022-07-25T20:36:00.086Z,28.46
2022-07-25T20:38:26.446Z,28.43
2022-07-25T20:40:52.810Z,28.43
2022-07-25T20:43:19.197Z,28.35
2022-07-25T20:45:45.599Z,28.32
2022-07-25T20:48:12.120Z,28.34
2022-07-25T20:50:38.488Z,28.35
2022-07-25T20:53:04.859Z,28.29
2022-07-25T20:55:31.367Z,28.21
2022-07-25T20:57:57.761Z,28.08
2022-07-25T21:00:24.124Z,27.96
2022-07-25T21:02:50.634Z,27.84
2022-07-25T21:05:16.995Z,27.78
2022-07-25T21:07:43.354Z,27.74
2022-07-25T21:10:09.751Z,27.71
2022-07-25T21:12:36.180Z,27.69
2022-07-25T21:15:02.610Z,27.74
2022-07-25T21:17:28.973Z,27.77
2022-07-25T21:19:55.341Z,27.70
2022-07-25T21:22:21.731Z,27.58
2022-07-25T21:24:48.143Z,27.59
2022-07-25T21:27:14.495Z,27.58
2022-07-25T21:29:40.921Z,27.58
2022-07-25T21:32:07.326Z,27.51
2022-07-25T21:34:33.640Z,27.39
2022-07-25T21:37:00.033Z,27.35
2022-07-25T21:39:26.380Z,27.33
2022-07-25T21:41:55.403Z,27.33
2022-07-25T21:44:19.204Z,27.25
2022-07-25T21:46:45.623Z,27.22
2022-07-25T21:49:12.809Z,26.95
2022-07-25T21:51:40.228Z,26.66
2022-07-25T21:54:04.734Z,26.29
2022-07-25T21:56:31.162Z,26.29
2022-07-25T21:58:57.536Z,26.46
2022-07-25T22:01:23.971Z,26.54
2022-07-25T22:03:50.396Z,26.47
2022-07-25T22:06:16.789Z,26.38
2022-07-25T22:08:43.140Z,26.36
2022-07-25T22:11:20.678Z,26.31
2022-07-25T22:13:38.019Z,26.04
2022-07-25T22:16:02.455Z,25.69
2022-07-25T22:18:28.754Z,25.69
2022-07-25T22:20:55.132Z,25.64
2022-07-25T22:23:21.514Z,25.25
2022-07-25T22:25:47.897Z,24.91
2022-07-25T22:28:14.523Z,24.74
2022-07-25T22:30:40.640Z,24.67
2022-07-25T22:33:07.011Z,24.52
2022-07-25T22:35:33.380Z,24.43
2022-07-25T22:37:59.803Z,24.41
2022-07-25T22:40:26.232Z,24.53
2022-07-25T22:42:52.598Z,25.03
2022-07-25T22:45:18.982Z,25.31
2022-07-25T22:47:45.357Z,25.43
2022-07-25T22:50:11.718Z,25.56
2022-07-25T22:52:38.129Z,25.62
2022-07-25T22:55:04.489Z,25.38
2022-07-25T22:57:37.568Z,25.30
2022-07-25T22:59:57.394Z,24.96
2022-07-25T23:02:23.831Z,24.95
2022-07-25T23:04:50.202Z,25.28
2022-07-25T23:07:16.613Z,25.10
2022-07-25T23:09:42.996Z,24.93
2022-07-25T23:12:09.363Z,24.91
2022-07-25T23:14:35.791Z,25.11
2022-07-25T23:17:02.281Z,25.30
2022-07-25T23:19:28.657Z,25.43
2022-07-25T23:21:55.015Z,25.50
2022-07-25T23:24:21.424Z,25.53
2022-07-25T23:26:47.794Z,25.52
2022-07-25T23:29:14.168Z,25.50
2022-07-25T23:31:40.680Z,25.09
2022-07-25T23:34:07.047Z,24.95
2022-07-25T23:36:33.392Z,25.14
2022-07-25T23:38:59.912Z,25.29
2022-07-25T23:41:26.291Z,25.33
2022-07-25T23:43:59.602Z,25.32
2022-07-25T23:46:22.468Z,25.26
2022-07-25T23:48:45.556Z,25.02
2022-07-25T23:51:11.885Z,25.03
2022-07-25T23:53:38.271Z,25.04
2022-07-25T23:56:04.634Z,24.99
2022-07-25T23:58:30.985Z,25.04
